»·PEaware :: N795XJ KMCC-KVNY

N795XJ :: KMCC-KVNY

FLIGHT INFORMATION

Flight Status: Arrived
Operator: Privately registered:
United States
More flights under this callsign
Pilot: Mark D. (12)
Aircraft: CESSNA 750 CITATION 10
(C750)
More flights by this aircraft type
Origin: KMCC McClellan
United States
Destination: KVNY Van Nuys
United States
More flights between these airports :: More routes between these airports
Route: +FROGO FRA DERBB FERN5
File this flight plan on PilotEdge
Remarks: / V /
Altitude:
(Current/Filed)
37,000ft
Speed:
(Current/Filed)
450kts
Departed: 10-Mar-12 04:26 PM
Arrived: 10-Mar-12 05:22 PM
Distance/Time
Traveled:
303nm/0:55
Distance/Time
To Go:
Arrived

Flight Plot

Page will automatically refresh every two minutes.

Flight plan parsing failed; only flown route is shown


Map Options




Map Legend


Flown Route
Filed Route
Departure Airport
Arrival Airport
Navaid (VOR, NDB)
Fix

Horizontal Profiles

Position Reports

Time Latitude Longitude Heading Altitude Ground
Speed
10-Mar-12 16:09 38.658818 -121.395189 4 79ft 0kts
10-Mar-12 16:10 38.658827 -121.395188 4 79ft 0kts
10-Mar-12 16:11 38.658837 -121.395187 4 79ft 0kts
10-Mar-12 16:12 38.658844 -121.395186 4 79ft 0kts
10-Mar-12 16:13 38.658852 -121.395185 4 79ft 0kts
10-Mar-12 16:14 38.658859 -121.395185 4 79ft 0kts
10-Mar-12 16:15 38.658859 -121.395185 4 79ft 0kts
10-Mar-12 16:16 38.658860 -121.395184 4 79ft 0kts
10-Mar-12 16:17 38.658866 -121.395184 4 79ft 0kts
10-Mar-12 16:18 38.658877 -121.395183 4 79ft 0kts
10-Mar-12 16:19 38.658888 -121.395181 4 79ft 0kts
10-Mar-12 16:20 38.659472 -121.396555 301 79ft 21kts
10-Mar-12 16:21 38.662658 -121.398810 0 79ft 18kts
10-Mar-12 16:22 38.669569 -121.398775 1 79ft 28kts
10-Mar-12 16:23 38.678301 -121.398757 0 79ft 31kts
10-Mar-12 16:24 38.681011 -121.400548 178 79ft 16kts
10-Mar-12 16:25 38.642997 -121.400591 176 1436ft 196kts
10-Mar-12 16:26 38.586188 -121.396116 176 3887ft 224kts
10-Mar-12 16:27 38.522475 -121.385266 155 6583ft 241kts
10-Mar-12 16:28 38.484918 -121.312372 119 9372ft 254kts
10-Mar-12 16:29 38.454117 -121.229057 119 11729ft 263kts
10-Mar-12 16:30 38.424711 -121.143190 118 14028ft 260kts
10-Mar-12 16:32 38.351497 -121.000715 138 17370ft 279kts
10-Mar-12 16:33 38.298496 -120.925544 138 19992ft 284kts
10-Mar-12 16:34 38.246858 -120.851049 138 22677ft 273kts
10-Mar-12 16:35 38.200467 -120.781864 138 25325ft 233kts
10-Mar-12 16:36 38.164621 -120.725286 137 27411ft 185kts
10-Mar-12 16:37 38.128175 -120.670402 138 27607ft 222kts
10-Mar-12 16:38 38.089429 -120.615212 138 27695ft 270kts
10-Mar-12 16:39 38.038544 -120.556609 146 28414ft 292kts
10-Mar-12 16:40 37.973380 -120.489212 146 29926ft 312kts
10-Mar-12 16:41 37.903010 -120.416460 145 31334ft 336kts
10-Mar-12 16:42 37.828353 -120.339155 145 32652ft 355kts
10-Mar-12 16:43 37.749760 -120.257459 144 33919ft 375kts
10-Mar-12 16:44 37.666817 -120.171090 144 35118ft 396kts
10-Mar-12 16:46 37.517386 -120.017196 144 36876ft 436kts
10-Mar-12 16:47 37.385917 -119.882657 143 37000ft 466kts
10-Mar-12 16:48 37.284227 -119.779805 143 37001ft 470kts
10-Mar-12 16:49 37.182013 -119.675190 142 37025ft 472kts
10-Mar-12 16:50 37.073263 -119.585723 169 37034ft 471kts
10-Mar-12 16:51 36.943553 -119.575798 183 37026ft 464kts
10-Mar-12 16:52 36.817103 -119.581700 184 37026ft 475kts
10-Mar-12 16:53 36.683287 -119.589325 184 37026ft 501kts
10-Mar-12 16:54 36.544971 -119.595261 183 37024ft 512kts
10-Mar-12 16:55 36.400602 -119.601234 183 37024ft 520kts
10-Mar-12 16:56 36.255590 -119.607300 183 37023ft 521kts
10-Mar-12 16:57 36.110182 -119.613242 183 37024ft 522kts
10-Mar-12 16:58 35.964740 -119.619021 183 37023ft 522kts
10-Mar-12 16:59 35.819173 -119.624644 183 37022ft 522kts
10-Mar-12 17:00 35.672947 -119.629425 182 37023ft 526kts
10-Mar-12 17:01 35.527200 -119.633789 182 37017ft 529kts
10-Mar-12 17:02 35.385911 -119.637960 182 36051ft 528kts
10-Mar-12 17:03 35.241062 -119.631860 163 33580ft 513kts
10-Mar-12 17:04 35.121875 -119.549780 144 31168ft 498kts
10-Mar-12 17:05 35.016760 -119.452284 143 28789ft 480kts
10-Mar-12 17:06 34.921241 -119.363459 143 26414ft 426kts
10-Mar-12 17:07 34.836934 -119.287602 144 23971ft 369kts
10-Mar-12 17:08 34.757612 -119.218376 145 21281ft 353kts
10-Mar-12 17:09 34.678670 -119.151158 146 18150ft 338kts
10-Mar-12 17:10 34.603212 -119.087717 146 15183ft 320kts
10-Mar-12 17:11 34.531335 -119.027356 147 12430ft 308kts
10-Mar-12 17:12 34.478169 -118.972552 117 11025ft 300kts
10-Mar-12 17:13 34.450572 -118.858296 104 9552ft 299kts
10-Mar-12 17:14 34.433747 -118.778097 104 7715ft 284kts
10-Mar-12 17:15 34.415253 -118.691233 104 5572ft 266kts
10-Mar-12 17:16 34.396053 -118.606816 104 5004ft 257kts
10-Mar-12 17:17 34.360474 -118.538624 150 4890ft 228kts
10-Mar-12 17:18 34.310103 -118.508460 163 3409ft 183kts
10-Mar-12 17:19 34.256047 -118.495369 171 2041ft 151kts
10-Mar-12 17:20 34.224862 -118.491721 174 1037ft 118kts
10-Mar-12 17:21 34.204047 -118.490355 241 803ft 8kts
10-Mar-12 17:22 34.203841 -118.490709 229 803ft 5kts
10-Mar-12 17:23 34.201258 -118.490572 167 803ft 11kts
10-Mar-12 17:24 34.200460 -118.490987 181 803ft 0kts
10-Mar-12 17:25 34.200449 -118.490988 181 803ft 0kts
10-Mar-12 17:26 34.200438 -118.490988 181 803ft 0kts
10-Mar-12 17:27 34.200427 -118.490988 181 803ft 0kts
10-Mar-12 17:28 34.200416 -118.490988 181 803ft 0kts
10-Mar-12 17:29 34.200405 -118.490989 181 803ft 0kts
10-Mar-12 17:30 34.200394 -118.490989 181 803ft 0kts
10-Mar-12 17:31 34.200383 -118.490989 181 803ft 0kts
10-Mar-12 17:32 34.200371 -118.490989 181 803ft 0kts
10-Mar-12 17:33 34.200360 -118.490990 181 803ft 0kts
10-Mar-12 17:34 34.200349 -118.490990 181 803ft 0kts
10-Mar-12 17:35 34.200338 -118.490990 181 803ft 0kts

Navigation Log

Ident Type
Flight plan parsing failed, navigation log unavailable